createdAt,value
2022-08-24T00:00:38.065Z,18.30
2022-08-24T00:03:07.262Z,18.30
2022-08-24T00:05:35.179Z,18.30
2022-08-24T00:08:03.277Z,18.20
2022-08-24T00:10:31.219Z,18.20
2022-08-24T00:12:58.698Z,18.20
2022-08-24T00:15:26.015Z,18.20
2022-08-24T00:17:53.396Z,18.10
2022-08-24T00:20:20.998Z,18.10
2022-08-24T00:22:48.816Z,18.10
2022-08-24T00:25:19.834Z,18.00
2022-08-24T00:27:47.675Z,18.00
2022-08-24T00:30:17.777Z,18.00
2022-08-24T00:32:46.811Z,17.90
2022-08-24T00:35:18.221Z,17.90
2022-08-24T00:37:47.326Z,17.90
2022-08-24T00:40:22.139Z,17.80
2022-08-24T00:42:50.704Z,17.80
2022-08-24T00:45:20.205Z,17.80
2022-08-24T00:48:01.199Z,17.80
2022-08-24T00:50:41.078Z,17.70
2022-08-24T00:53:13.443Z,17.70
2022-08-24T00:55:49.370Z,17.70
2022-08-24T00:58:23.729Z,17.70
2022-08-24T01:00:58.918Z,17.60
2022-08-24T01:03:28.527Z,17.60
2022-08-24T01:05:56.626Z,17.60
2022-08-24T01:08:24.672Z,17.60
2022-08-24T01:11:00.811Z,17.60
2022-08-24T01:13:29.519Z,17.50
2022-08-24T01:16:02.164Z,17.50
2022-08-24T01:18:49.050Z,17.50
2022-08-24T01:21:24.638Z,17.40
2022-08-24T01:23:55.868Z,17.40
2022-08-24T01:26:32.956Z,17.40
2022-08-24T01:29:09.816Z,17.40
2022-08-24T01:31:37.730Z,17.30
2022-08-24T01:34:06.631Z,17.30
2022-08-24T01:36:56.835Z,17.30
2022-08-24T01:39:30.053Z,17.30
2022-08-24T01:41:59.232Z,17.20
2022-08-24T01:44:30.048Z,17.20
2022-08-24T01:46:58.305Z,17.20
2022-08-24T01:49:33.061Z,17.20
2022-08-24T01:52:01.563Z,17.20
2022-08-24T01:54:29.116Z,17.10
2022-08-24T01:56:56.823Z,17.10
2022-08-24T01:59:25.347Z,17.10
2022-08-24T02:02:02.986Z,17.10
2022-08-24T02:04:32.768Z,17.10
2022-08-24T02:07:00.174Z,17.00
2022-08-24T02:09:32.785Z,17.00
2022-08-24T02:12:02.327Z,17.00
2022-08-24T02:14:35.820Z,17.00
2022-08-24T02:17:05.491Z,17.00
2022-08-24T02:19:33.459Z,17.00
2022-08-24T02:22:00.995Z,16.90
2022-08-24T02:24:29.530Z,16.90
2022-08-24T02:26:59.104Z,16.90
2022-08-24T02:29:27.192Z,16.90
2022-08-24T02:31:54.520Z,16.90
2022-08-24T02:34:22.291Z,16.80
2022-08-24T02:36:49.655Z,16.80
2022-08-24T02:39:17.256Z,16.80
2022-08-24T02:41:47.500Z,16.80
2022-08-24T02:44:15.392Z,16.80
2022-08-24T02:46:43.295Z,16.80
2022-08-24T02:49:12.685Z,16.70
2022-08-24T02:51:45.794Z,16.70
2022-08-24T02:54:21.683Z,16.70
2022-08-24T02:56:51.975Z,16.70
2022-08-24T02:59:20.803Z,16.60
2022-08-24T03:01:50.155Z,16.60
2022-08-24T03:04:20.220Z,16.60
2022-08-24T03:06:48.075Z,16.60
2022-08-24T03:09:16.176Z,16.60
2022-08-24T03:11:45.204Z,16.50
2022-08-24T03:14:14.081Z,16.50
2022-08-24T03:16:41.963Z,16.50
2022-08-24T03:19:09.791Z,16.40
2022-08-24T03:21:38.857Z,16.40
2022-08-24T03:24:06.660Z,16.40
2022-08-24T03:26:34.323Z,16.40
2022-08-24T03:29:02.380Z,16.40
2022-08-24T03:31:33.252Z,16.40
2022-08-24T03:34:01.042Z,16.30
2022-08-24T03:36:28.730Z,16.30
2022-08-24T03:38:56.487Z,16.30
2022-08-24T03:41:24.072Z,16.30
2022-08-24T03:43:51.593Z,16.30
2022-08-24T03:46:26.028Z,16.30
2022-08-24T03:48:55.569Z,16.30
2022-08-24T03:51:26.474Z,16.30
2022-08-24T03:53:56.713Z,16.20
2022-08-24T03:56:27.700Z,16.20
2022-08-24T03:58:56.144Z,16.20
2022-08-24T04:01:25.538Z,16.20
2022-08-24T04:03:55.308Z,16.20
2022-08-24T04:06:27.359Z,16.10
2022-08-24T04:08:55.859Z,16.20
2022-08-24T04:11:27.544Z,16.10
2022-08-24T04:13:57.043Z,16.10
2022-08-24T04:16:26.099Z,16.10
2022-08-24T04:19:02.791Z,16.10
2022-08-24T04:21:35.677Z,16.10
2022-08-24T04:24:08.786Z,16.10
2022-08-24T04:26:45.808Z,16.00
2022-08-24T04:29:19.363Z,16.00
2022-08-24T04:31:53.702Z,16.00
2022-08-24T04:34:22.551Z,16.00
2022-08-24T04:36:51.116Z,16.00
2022-08-24T04:39:18.983Z,16.00
2022-08-24T04:42:06.657Z,16.00
2022-08-24T04:44:38.291Z,16.00
2022-08-24T04:47:08.335Z,16.00
2022-08-24T04:49:37.476Z,16.00
2022-08-24T04:52:08.092Z,16.00
2022-08-24T04:54:35.628Z,16.10
2022-08-24T04:57:18.606Z,16.10
2022-08-24T04:59:47.545Z,16.20
2022-08-24T05:02:15.479Z,16.30
2022-08-24T05:04:45.892Z,16.30
2022-08-24T05:07:14.163Z,16.50
2022-08-24T05:09:45.022Z,16.80
2022-08-24T05:12:13.852Z,17.00
2022-08-24T05:14:50.527Z,17.30
2022-08-24T05:17:18.794Z,17.60
2022-08-24T05:19:46.370Z,18.10
2022-08-24T05:22:13.927Z,18.50
2022-08-24T05:24:47.035Z,19.10
2022-08-24T05:27:15.995Z,19.70
2022-08-24T05:29:47.340Z,20.30
2022-08-24T05:32:17.469Z,21.00
2022-08-24T05:34:45.327Z,21.70
2022-08-24T05:37:12.651Z,22.30
2022-08-24T05:40:12.740Z,22.90
2022-08-24T05:42:44.183Z,23.60
2022-08-24T05:45:12.796Z,24.10
2022-08-24T05:47:40.723Z,24.60
2022-08-24T05:50:22.429Z,25.10
2022-08-24T05:52:50.028Z,25.60
2022-08-24T05:55:17.733Z,26.00
2022-08-24T05:57:45.599Z,26.40
2022-08-24T06:00:18.789Z,26.90
2022-08-24T06:02:52.852Z,27.20
2022-08-24T06:05:21.931Z,27.60
2022-08-24T06:07:49.870Z,28.00
2022-08-24T06:10:35.925Z,28.40
2022-08-24T06:13:05.483Z,28.70
2022-08-24T06:15:33.332Z,29.10
2022-08-24T06:18:01.014Z,29.50
2022-08-24T06:20:29.468Z,29.80
2022-08-24T06:22:58.059Z,30.10
2022-08-24T06:25:50.947Z,30.50
2022-08-24T06:28:21.495Z,30.80
2022-08-24T06:30:49.379Z,31.10
2022-08-24T06:33:26.050Z,31.40
2022-08-24T06:35:57.968Z,31.70
2022-08-24T06:38:25.356Z,31.90
2022-08-24T06:40:54.263Z,32.20
2022-08-24T06:43:22.760Z,32.40
2022-08-24T06:45:55.368Z,32.60
2022-08-24T06:48:30.335Z,32.90
2022-08-24T06:50:58.756Z,33.20
2022-08-24T06:53:27.159Z,33.40
2022-08-24T06:55:58.416Z,33.70
2022-08-24T06:58:28.591Z,33.90
2022-08-24T07:00:57.143Z,34.10
2022-08-24T07:03:25.800Z,34.40
2022-08-24T07:06:04.805Z,34.60
2022-08-24T07:08:38.107Z,34.80
2022-08-24T07:11:06.027Z,35.10
2022-08-24T07:13:34.268Z,35.40
2022-08-24T07:16:02.630Z,35.60
2022-08-24T07:18:33.314Z,35.80
2022-08-24T07:21:04.313Z,36.00
2022-08-24T07:23:42.988Z,36.20
2022-08-24T07:26:18.861Z,36.30
2022-08-24T07:29:05.560Z,36.50
2022-08-24T07:31:43.166Z,36.60
2022-08-24T07:34:16.825Z,36.80
2022-08-24T07:36:45.147Z,36.90
2022-08-24T07:39:13.984Z,37.10
2022-08-24T07:42:11.451Z,37.30
2022-08-24T07:44:32.438Z,37.40
2022-08-24T07:47:15.064Z,37.50
2022-08-24T07:49:49.386Z,37.60
2022-08-24T07:52:17.035Z,37.80
2022-08-24T07:54:46.713Z,37.90
2022-08-24T07:57:15.674Z,38.10
2022-08-24T07:59:43.324Z,38.30
2022-08-24T08:02:11.666Z,38.50
2022-08-24T08:04:45.088Z,38.60
2022-08-24T08:07:14.532Z,38.70
2022-08-24T08:09:42.668Z,38.90
2022-08-24T08:12:12.979Z,39.00
2022-08-24T08:14:53.010Z,39.20
2022-08-24T08:17:20.834Z,39.30
2022-08-24T08:19:48.452Z,39.50
2022-08-24T08:22:34.332Z,39.60
2022-08-24T08:25:42.424Z,39.60
2022-08-24T08:28:25.683Z,39.80
2022-08-24T08:30:54.041Z,39.80
2022-08-24T08:33:21.738Z,39.90
2022-08-24T08:35:49.608Z,40.00
2022-08-24T08:38:17.335Z,40.00
2022-08-24T08:40:45.186Z,40.00
2022-08-24T08:43:57.379Z,40.10
2022-08-24T08:46:43.141Z,40.10
2022-08-24T08:49:45.928Z,40.10
2022-08-24T08:52:43.656Z,40.00
2022-08-24T08:55:45.344Z,40.00
2022-08-24T08:58:22.825Z,39.90
2022-08-24T09:01:06.423Z,39.80
2022-08-24T09:04:09.594Z,39.80
2022-08-24T09:07:28.854Z,39.80
2022-08-24T09:10:34.516Z,39.70
2022-08-24T09:13:11.239Z,39.70
2022-08-24T09:15:59.443Z,39.70
2022-08-24T09:18:48.839Z,39.60
2022-08-24T09:21:54.715Z,39.50
2022-08-24T09:24:46.568Z,39.50
2022-08-24T09:27:43.740Z,39.50
2022-08-24T09:30:25.286Z,39.40
2022-08-24T09:33:17.125Z,39.30
2022-08-24T09:36:08.994Z,39.20
2022-08-24T09:38:56.239Z,39.00
2022-08-24T09:41:26.496Z,38.90
2022-08-24T09:44:07.285Z,38.90
2022-08-24T09:46:59.890Z,38.80
2022-08-24T09:49:30.262Z,38.70
2022-08-24T09:52:19.597Z,38.60
2022-08-24T09:54:46.883Z,38.40
2022-08-24T09:57:50.262Z,38.30
2022-08-24T10:00:30.131Z,38.10
2022-08-24T10:03:37.715Z,37.80
2022-08-24T10:06:22.436Z,37.60
2022-08-24T10:08:59.848Z,37.30
2022-08-24T10:11:43.560Z,37.00
2022-08-24T10:14:29.363Z,36.50
2022-08-24T10:17:09.763Z,36.00
2022-08-24T10:19:55.515Z,35.40
2022-08-24T10:22:59.099Z,35.00
2022-08-24T10:25:37.407Z,34.50
2022-08-24T10:28:35.167Z,34.10
2022-08-24T10:31:12.066Z,33.70
2022-08-24T10:33:56.042Z,33.40
2022-08-24T10:36:36.287Z,33.10
2022-08-24T10:39:46.889Z,32.80
2022-08-24T10:43:06.387Z,32.60
2022-08-24T10:46:18.734Z,32.40
2022-08-24T10:49:18.356Z,32.30
2022-08-24T10:51:51.714Z,32.20
2022-08-24T10:54:20.412Z,32.10
2022-08-24T10:57:26.831Z,32.10
2022-08-24T11:00:01.151Z,32.10
2022-08-24T11:02:39.528Z,32.10
2022-08-24T11:05:10.061Z,32.00
2022-08-24T11:07:51.984Z,31.90
2022-08-24T11:10:27.881Z,31.90
2022-08-24T11:12:55.963Z,32.00
2022-08-24T11:15:28.179Z,32.10
2022-08-24T11:17:58.493Z,32.00
2022-08-24T11:20:33.363Z,31.90
2022-08-24T11:23:05.245Z,31.90
2022-08-24T11:25:36.604Z,31.80
2022-08-24T11:28:16.002Z,31.80
2022-08-24T11:30:43.583Z,31.80
2022-08-24T11:33:49.459Z,31.80
2022-08-24T11:36:21.543Z,32.00
2022-08-24T11:39:09.223Z,32.10
2022-08-24T11:41:50.916Z,32.20
2022-08-24T11:44:24.939Z,32.40
2022-08-24T11:47:19.859Z,32.60
2022-08-24T11:50:14.437Z,32.60
2022-08-24T11:52:56.904Z,32.80
2022-08-24T11:56:00.450Z,32.90
2022-08-24T11:58:38.610Z,32.90
2022-08-24T12:01:12.260Z,33.00
2022-08-24T12:03:52.478Z,33.10
2022-08-24T12:06:54.924Z,33.00
2022-08-24T12:09:37.479Z,32.90
2022-08-24T12:12:23.134Z,32.90
2022-08-24T12:15:00.361Z,32.80
2022-08-24T12:17:35.682Z,32.80
2022-08-24T12:20:29.036Z,32.70
2022-08-24T12:23:02.141Z,32.70
2022-08-24T12:25:50.891Z,32.70
2022-08-24T12:28:38.718Z,32.70
2022-08-24T12:31:21.847Z,32.70
2022-08-24T12:33:54.073Z,32.60
2022-08-24T12:36:33.708Z,32.60
2022-08-24T12:39:12.890Z,32.60
2022-08-24T12:42:14.592Z,32.60
2022-08-24T12:44:53.741Z,32.60
2022-08-24T12:47:40.860Z,32.60
2022-08-24T12:50:24.604Z,32.60
2022-08-24T12:53:19.248Z,32.70
2022-08-24T12:55:53.733Z,32.80
2022-08-24T12:58:54.488Z,32.80
2022-08-24T13:01:33.669Z,32.80
2022-08-24T13:04:19.411Z,32.90
2022-08-24T13:06:59.812Z,32.90
2022-08-24T13:09:57.900Z,32.80
2022-08-24T13:12:43.967Z,32.80
2022-08-24T13:15:23.484Z,32.70
2022-08-24T13:17:59.024Z,32.60
2022-08-24T13:20:50.049Z,32.40
2022-08-24T13:23:20.827Z,32.30
2022-08-24T13:25:51.317Z,32.20
2022-08-24T13:28:22.717Z,32.20
2022-08-24T13:31:05.711Z,32.20
2022-08-24T13:33:46.844Z,32.10
2022-08-24T13:36:44.893Z,32.10
2022-08-24T13:39:37.462Z,32.00
2022-08-24T13:42:33.575Z,31.90
2022-08-24T13:45:12.655Z,31.80
2022-08-24T13:48:07.120Z,31.80
2022-08-24T13:51:16.743Z,31.80
2022-08-24T13:54:15.604Z,31.70
2022-08-24T13:57:05.855Z,31.70
2022-08-24T13:59:51.823Z,31.70
2022-08-24T14:02:44.972Z,31.70
2022-08-24T14:05:34.212Z,31.60
2022-08-24T14:08:13.435Z,31.50
2022-08-24T14:11:07.358Z,31.40
2022-08-24T14:14:03.433Z,31.30
2022-08-24T14:17:19.429Z,31.20
2022-08-24T14:19:50.898Z,31.10
2022-08-24T14:22:46.739Z,31.00
2022-08-24T14:25:21.690Z,30.90
2022-08-24T14:28:12.837Z,30.80
2022-08-24T14:30:43.546Z,30.60
2022-08-24T14:33:33.070Z,30.60
2022-08-24T14:36:14.516Z,30.40
2022-08-24T14:39:01.135Z,30.30
2022-08-24T14:42:08.487Z,30.20
2022-08-24T14:44:59.423Z,30.10
2022-08-24T14:47:39.152Z,30.00
2022-08-24T14:50:20.301Z,29.90
2022-08-24T14:53:32.427Z,29.80
2022-08-24T14:56:25.063Z,29.70
2022-08-24T14:58:52.591Z,29.70
2022-08-24T15:01:41.740Z,29.60
2022-08-24T15:04:45.237Z,29.60
2022-08-24T15:07:29.405Z,29.50
2022-08-24T15:09:58.269Z,29.40
2022-08-24T15:12:58.068Z,29.40
2022-08-24T15:15:51.855Z,29.30
2022-08-24T15:18:30.067Z,29.30
2022-08-24T15:21:23.025Z,29.30
2022-08-24T15:24:09.700Z,29.30
2022-08-24T15:27:10.280Z,29.20
2022-08-24T15:29:49.471Z,29.20
2022-08-24T15:32:17.414Z,29.20
2022-08-24T15:34:54.922Z,29.30
2022-08-24T15:37:28.323Z,29.20
2022-08-24T15:39:55.967Z,29.30
2022-08-24T15:42:24.290Z,29.30
2022-08-24T15:44:53.095Z,29.30
2022-08-24T15:47:29.279Z,29.30
2022-08-24T15:50:06.465Z,29.30
2022-08-24T15:52:43.099Z,29.30
2022-08-24T15:55:42.632Z,29.40
2022-08-24T15:58:29.260Z,29.40
2022-08-24T16:01:28.583Z,29.40
2022-08-24T16:03:59.668Z,29.40
2022-08-24T16:06:38.235Z,29.40
2022-08-24T16:09:24.365Z,29.40
2022-08-24T16:12:13.991Z,29.40
2022-08-24T16:14:56.450Z,29.40
2022-08-24T16:17:33.334Z,29.40
2022-08-24T16:20:30.330Z,29.30
2022-08-24T16:23:07.530Z,29.40
2022-08-24T16:25:43.244Z,29.40
2022-08-24T16:28:33.862Z,29.40
2022-08-24T16:31:07.718Z,29.40
2022-08-24T16:33:45.386Z,29.40
2022-08-24T16:36:18.448Z,29.40
2022-08-24T16:38:49.349Z,29.30
2022-08-24T16:41:21.215Z,29.30
2022-08-24T16:43:49.188Z,29.30
2022-08-24T16:46:22.908Z,29.10
2022-08-24T16:48:50.680Z,29.10
2022-08-24T16:51:18.364Z,29.10
2022-08-24T16:53:45.871Z,29.00
2022-08-24T16:56:16.506Z,28.90
2022-08-24T16:58:47.518Z,28.90
2022-08-24T17:01:15.620Z,28.80
2022-08-24T17:03:43.310Z,28.70
2022-08-24T17:06:12.318Z,28.70
2022-08-24T17:08:40.618Z,28.60
2022-08-24T17:11:08.547Z,28.60
2022-08-24T17:13:51.336Z,28.50
2022-08-24T17:16:20.847Z,28.50
2022-08-24T17:18:48.381Z,28.50
2022-08-24T17:21:17.119Z,28.40
2022-08-24T17:23:45.226Z,28.40
2022-08-24T17:26:20.264Z,28.40
2022-08-24T17:28:51.476Z,28.30
2022-08-24T17:31:19.285Z,28.30
2022-08-24T17:33:47.041Z,28.30
2022-08-24T17:36:16.125Z,28.30
2022-08-24T17:38:46.162Z,28.30
2022-08-24T17:41:14.362Z,28.20
2022-08-24T17:43:46.021Z,28.20
2022-08-24T17:46:15.054Z,28.10
2022-08-24T17:48:44.827Z,28.10
2022-08-24T17:51:13.525Z,28.00
2022-08-24T17:53:41.343Z,28.00
2022-08-24T17:56:09.686Z,28.00
2022-08-24T17:58:57.315Z,27.90
2022-08-24T18:01:25.686Z,27.90
2022-08-24T18:03:53.346Z,27.90
2022-08-24T18:06:23.671Z,27.80
2022-08-24T18:08:52.040Z,27.80
2022-08-24T18:11:22.738Z,27.70
2022-08-24T18:13:54.283Z,27.70
2022-08-24T18:16:24.870Z,27.60
2022-08-24T18:18:53.487Z,27.50
2022-08-24T18:21:22.572Z,27.50
2022-08-24T18:23:50.855Z,27.40
2022-08-24T18:26:28.087Z,27.40
2022-08-24T18:29:06.657Z,27.30
2022-08-24T18:31:34.202Z,27.20
2022-08-24T18:34:01.750Z,27.10
2022-08-24T18:36:29.401Z,27.10
2022-08-24T18:38:57.182Z,27.00
2022-08-24T18:41:33.285Z,26.80
2022-08-24T18:44:05.012Z,26.80
2022-08-24T18:46:32.966Z,26.70
2022-08-24T18:49:01.893Z,26.60
2022-08-24T18:51:36.524Z,26.50
2022-08-24T18:54:07.909Z,26.50
2022-08-24T18:56:35.637Z,26.30
2022-08-24T18:59:04.989Z,26.30
2022-08-24T19:01:57.086Z,26.20
2022-08-24T19:04:29.464Z,26.10
2022-08-24T19:07:01.019Z,26.00
2022-08-24T19:09:33.435Z,25.90
2022-08-24T19:12:03.368Z,25.80
2022-08-24T19:14:31.727Z,25.70
2022-08-24T19:16:58.991Z,25.70
2022-08-24T19:19:26.624Z,25.60
2022-08-24T19:21:54.202Z,25.50
2022-08-24T19:24:26.003Z,25.40
2022-08-24T19:26:56.646Z,25.30
2022-08-24T19:29:54.076Z,25.20
2022-08-24T19:32:23.131Z,25.10
2022-08-24T19:34:54.530Z,25.10
2022-08-24T19:37:23.145Z,25.00
2022-08-24T19:39:51.023Z,24.90
2022-08-24T19:42:19.323Z,24.80
2022-08-24T19:45:05.213Z,24.80
2022-08-24T19:47:34.601Z,24.70
2022-08-24T19:50:05.472Z,24.60
2022-08-24T19:52:33.820Z,24.60
2022-08-24T19:55:02.749Z,24.50
2022-08-24T19:57:33.004Z,24.50
2022-08-24T20:00:25.016Z,24.40
2022-08-24T20:02:56.096Z,24.40
2022-08-24T20:05:28.197Z,24.30
2022-08-24T20:07:56.479Z,24.30
2022-08-24T20:10:25.087Z,24.20
2022-08-24T20:12:53.184Z,24.10
2022-08-24T20:15:21.123Z,24.10
2022-08-24T20:17:50.192Z,24.00
2022-08-24T20:20:20.668Z,23.90
2022-08-24T20:22:48.363Z,23.90
2022-08-24T20:25:15.944Z,23.90
2022-08-24T20:27:45.664Z,23.80
2022-08-24T20:30:15.423Z,23.70
2022-08-24T20:32:42.900Z,23.70
2022-08-24T20:35:10.399Z,23.60
2022-08-24T20:37:40.455Z,23.50
2022-08-24T20:40:13.076Z,23.50
2022-08-24T20:42:41.621Z,23.40
2022-08-24T20:45:11.555Z,23.40
2022-08-24T20:47:45.672Z,23.40
2022-08-24T20:50:15.051Z,23.30
2022-08-24T20:52:42.474Z,23.30
2022-08-24T20:55:12.396Z,23.20
2022-08-24T20:57:45.419Z,23.20
2022-08-24T21:00:14.738Z,23.20
2022-08-24T21:02:42.191Z,23.10
2022-08-24T21:05:10.859Z,23.10
2022-08-24T21:07:39.183Z,23.00
2022-08-24T21:10:06.959Z,22.90
2022-08-24T21:12:34.632Z,22.90
2022-08-24T21:15:02.314Z,22.90
2022-08-24T21:17:29.682Z,22.90
2022-08-24T21:19:57.164Z,22.80
2022-08-24T21:22:24.981Z,22.80
2022-08-24T21:24:52.296Z,22.80
2022-08-24T21:27:19.823Z,22.70
2022-08-24T21:29:47.186Z,22.60
2022-08-24T21:32:32.995Z,22.60
2022-08-24T21:35:00.277Z,22.60
2022-08-24T21:37:27.599Z,22.50
2022-08-24T21:39:55.540Z,22.50
2022-08-24T21:42:24.167Z,22.40
2022-08-24T21:44:51.864Z,22.40
2022-08-24T21:47:19.445Z,22.30
2022-08-24T21:49:46.790Z,22.30
2022-08-24T21:52:14.348Z,22.30
2022-08-24T21:54:43.195Z,22.20
2022-08-24T21:57:10.915Z,22.20
2022-08-24T21:59:39.343Z,22.10
2022-08-24T22:02:07.295Z,22.10
2022-08-24T22:04:37.095Z,22.10
2022-08-24T22:07:04.764Z,22.00
2022-08-24T22:09:32.899Z,22.00
2022-08-24T22:12:00.157Z,22.00
2022-08-24T22:14:27.664Z,22.00
2022-08-24T22:16:55.550Z,21.90
2022-08-24T22:19:23.124Z,21.90
2022-08-24T22:21:50.751Z,21.90
2022-08-24T22:24:18.263Z,21.80
2022-08-24T22:26:45.635Z,21.80
2022-08-24T22:29:13.402Z,21.80
2022-08-24T22:31:43.449Z,21.80
2022-08-24T22:34:19.455Z,21.70
2022-08-24T22:36:48.783Z,21.70
2022-08-24T22:39:16.780Z,21.60
2022-08-24T22:41:44.384Z,21.60
2022-08-24T22:44:21.322Z,21.60
2022-08-24T22:46:54.679Z,21.60
2022-08-24T22:49:25.918Z,21.50
2022-08-24T22:51:53.989Z,21.50
2022-08-24T22:54:23.775Z,21.40
2022-08-24T22:56:53.367Z,21.40
2022-08-24T22:59:27.565Z,21.40
2022-08-24T23:01:57.076Z,21.30
2022-08-24T23:04:29.464Z,21.30
2022-08-24T23:06:57.013Z,21.30
2022-08-24T23:09:24.842Z,21.30
2022-08-24T23:11:52.525Z,21.30
2022-08-24T23:14:22.511Z,21.20
2022-08-24T23:16:50.403Z,21.20
2022-08-24T23:19:39.447Z,21.20
2022-08-24T23:22:08.834Z,21.10
2022-08-24T23:24:36.880Z,21.10
2022-08-24T23:27:06.074Z,21.00
2022-08-24T23:29:34.790Z,21.10
2022-08-24T23:32:02.993Z,21.00
2022-08-24T23:34:31.237Z,21.00
2022-08-24T23:36:58.832Z,21.00
2022-08-24T23:39:26.538Z,21.00
2022-08-24T23:41:54.187Z,20.90
2022-08-24T23:44:25.968Z,20.90
2022-08-24T23:46:53.841Z,20.80
2022-08-24T23:49:22.789Z,20.80
2022-08-24T23:51:50.987Z,20.80
2022-08-24T23:54:21.731Z,20.70
2022-08-24T23:56:50.396Z,20.70
2022-08-24T23:59:23.723Z,20.70
